Aérodrome :
LOGIN :

S'inscrire | Disclaimer

   EN    FR    IT 

 










Légende :    VFR   VFR Marginal   IFR   IFR Intensif   IFR Très Intensif
Visi : 
Plafond : 
>= 8 km
>= 3000ft
5 à 8 km
1000 à 3000 ft
1500m à 5 km
500 à 1000 ft
800 à 1500m
200 à 500 ft
< 800m
< 200 ft
Symboles :   Orages  Brouillard  Fortes neiges  Fortes précipitations  Vent > 20 kt
SIGMETs :   Divers  Orages  Givrage  Turbulence  Onde Orograph.  Cendres Volcan.






- Altitude de l'aérodrome : 194 ft


EBCV - Chièvres

DERNIER METAR :
  • 100955Z AUTO 30010KT 9999 BKN022/// BKN041/// BKN080/// 18/12 Q1014 WHT

METARs EXPIRÉS :
  • 100925Z AUTO 30009KT 9999 FEW016/// BKN021/// BKN077/// 18/13 Q1014 WHT
  • 100855Z AUTO 29008KT 9999 FEW015/// OVC021/// 17/14 Q1013 WHT
  • 100847Z AUTO 30008KT 9999 OVC019/// 17/14 Q1013 WHT
  • 100825Z AUTO 30010KT 9999 OVC014/// 16/14 Q1013 GRN
  • 100755Z AUTO 30009KT 9999 BKN013/// BKN073/// 17/15 Q1012 GRN
  • 100725Z AUTO 28010KT 9999 BKN012/// 16/14 Q1012 GRN
  • 100655Z AUTO 28011KT 9999 BKN013/// BKN041/// 17/15 Q1011 GRN

TAF TAF EBCV
Valide du 10 à 10h jusqu'au 10 à 19h UTC


100841Z 1010/1019 33010G20KT 9999 SCT018 SCT070
BECMG 1011/1012 9999 SCT025
PROB30
TEMPO 1012/1015 8000 -SHRA SCT022 BY EBWM



MET'MAP, la Météo Aéronautique d'un coup d'oeil ! - Copyright ORBIFLY Décembre 2007 - Disclaimer

ORBIFLY MET'MAP TEAM :

Programmation & Développement : Alexandra Zaïnal
Sur une idée originale de : Baudouin d'Aumeries
Assistance à la programmation : Marc-Olivier Méhu
Soutien technique & logistique : Manuel Goepfert

Contact : metmap@orbifly.com




SOURCES & CREDITS :

   NOAA